Time;durP1;ratioP1;P1;durP2;ratioP2;P2;SDS_P1;SDS_P2;PMS_P1;PMS_P2;Temp;Humidity;BMP_temperature;BMP_pressure;BME280_temperature;BME280_humidity;BME280_pressure;Samples;Min_cycle;Max_cycle;Signal;HPM_P1;HPM_P2
2022/06/02 00:00:31;;;;;;;22.40;10.70;;;;;;;14.44;53.11;98949.05;105841;1277;98634;-70
2022/06/02 00:03:43;;;;;;;23.20;10.20;;;;;;;14.40;53.10;98951.11;105858;1277;97931;-69
2022/06/02 00:06:56;;;;;;;22.40;11.50;;;;;;;14.36;53.20;98951.54;105866;1276;111581;-70
2022/06/02 00:09:42;;;;;;;21.50;10.30;;;;;;;14.31;53.40;98953.44;105322;1279;97979;-71
2022/06/02 00:12:23;;;;;;;23.30;11.50;;;;;;;14.28;53.45;98952.77;105774;1278;108316;-70
2022/06/02 00:15:03;;;;;;;23.50;11.40;;;;;;;14.28;53.51;98950.11;105917;1277;96721;-70
2022/06/02 00:17:50;;;;;;;31.10;13.30;;;;;;;14.27;53.56;98942.90;105920;1278;97896;-70
2022/06/02 00:20:33;;;;;;;23.80;12.60;;;;;;;14.23;53.71;98948.23;105881;1278;111457;-67
2022/06/02 00:23:32;;;;;;;27.60;13.60;;;;;;;14.18;53.75;98951.50;105962;1276;97982;-69
2022/06/02 00:26:50;;;;;;;24.00;11.80;;;;;;;14.18;53.90;98954.94;105928;1278;106403;-70
2022/06/02 00:29:56;;;;;;;25.90;12.80;;;;;;;14.17;54.02;98956.80;105570;1282;98006;-69
2022/06/02 00:32:32;;;;;;;25.60;12.10;;;;;;;14.16;54.22;98962.96;105358;1284;96804;-70
2022/06/02 00:35:23;;;;;;;25.50;11.70;;;;;;;14.16;54.15;98962.23;105832;1278;112076;-71
2022/06/02 00:38:06;;;;;;;24.60;11.40;;;;;;;14.15;54.24;98959.07;105947;1277;97752;-70
2022/06/02 00:40:36;;;;;;;27.70;11.60;;;;;;;14.16;54.41;98957.98;105861;1277;107608;-71
2022/06/02 00:43:29;;;;;;;24.70;11.40;;;;;;;14.17;54.40;98958.46;105725;1278;97900;-71
2022/06/02 00:46:11;;;;;;;22.80;10.80;;;;;;;14.16;54.55;98954.20;105814;1281;95982;-71
2022/06/02 00:49:14;;;;;;;22.30;11.70;;;;;;;14.14;54.60;98950.25;105795;1278;111567;-70
2022/06/02 00:51:57;;;;;;;23.40;10.10;;;;;;;14.12;54.73;98954.21;105846;1277;97468;-71
2022/06/02 00:57:43;;;;;;;24.20;11.80;;;;;;;14.09;54.95;98946.61;105817;1277;97788;-70
2022/06/02 01:00:11;;;;;;;21.90;10.70;;;;;;;14.08;55.01;98959.19;105809;1278;97880;-69
2022/06/02 01:02:55;;;;;;;24.00;11.80;;;;;;;14.07;54.98;98967.69;105816;1278;111463;-70
2022/06/02 01:05:57;;;;;;;21.90;10.80;;;;;;;14.04;55.10;98971.83;105870;1280;97819;-70
2022/06/02 01:08:45;;;;;;;22.00;10.60;;;;;;;14.00;55.23;98973.13;105853;1278;107688;-70
2022/06/02 01:11:27;;;;;;;24.10;11.30;;;;;;;13.96;55.29;98976.48;105789;1277;97971;-69
2022/06/02 01:14:31;;;;;;;23.90;10.60;;;;;;;13.93;55.33;98972.81;105875;1279;95240;-69
2022/06/02 01:17:21;;;;;;;21.20;10.40;;;;;;;13.89;55.41;98975.08;105774;1278;111469;-69
2022/06/02 01:20:09;;;;;;;25.80;11.80;;;;;;;13.88;55.43;98977.20;105794;1281;97979;-69
2022/06/02 01:23:06;;;;;;;22.60;11.30;;;;;;;13.87;55.58;98972.84;105798;1281;108787;-69
2022/06/02 01:25:52;;;;;;;21.50;11.40;;;;;;;13.85;55.67;98970.50;105759;1281;97915;-69
2022/06/02 01:28:59;;;;;;;23.10;12.00;;;;;;;13.84;55.70;98959.36;105799;1281;97853;-69
2022/06/02 01:31:39;;;;;;;23.50;11.70;;;;;;;13.82;55.85;98950.38;105861;1278;111375;-70
2022/06/02 01:34:33;;;;;;;22.30;11.10;;;;;;;13.82;55.99;98947.89;105840;1277;98574;-69
2022/06/02 01:37:05;;;;;;;;;;;;;;;13.82;55.97;98949.33;105812;1278;107387;-69
2022/06/02 01:40:05;;;;;;;22.20;11.00;;;;;;;13.80;56.08;98952.91;105790;1279;98492;-69
2022/06/02 01:42:59;;;;;;;23.80;11.20;;;;;;;13.79;56.17;98944.77;105901;1277;97896;-69
2022/06/02 01:45:56;;;;;;;25.00;11.70;;;;;;;13.77;56.14;98940.48;105837;1277;112067;-69
2022/06/02 01:48:24;;;;;;;21.50;10.60;;;;;;;13.77;56.32;98938.36;105416;1281;97898;-70
2022/06/02 01:51:34;;;;;;;21.30;10.30;;;;;;;13.77;56.30;98942.50;105799;1280;107705;-69
2022/06/02 01:54:44;;;;;;;23.30;10.80;;;;;;;13.76;56.54;98941.70;104946;1287;95558;-69
2022/06/02 01:57:33;;;;;;;21.60;9.90;;;;;;;13.76;56.66;98937.42;105096;1286;97924;-69
2022/06/02 02:00:10;;;;;;;20.90;10.40;;;;;;;13.77;56.80;98935.30;105782;1277;111486;-70
2022/06/02 02:03:01;;;;;;;20.20;9.30;;;;;;;13.80;56.75;98933.68;105807;1278;97995;-69
2022/06/02 02:05:37;;;;;;;21.40;9.70;;;;;;;13.82;56.81;98930.05;105805;1277;107535;-69
2022/06/02 02:08:23;;;;;;;23.00;9.60;;;;;;;13.84;56.87;98922.27;105809;1280;97881;-69
2022/06/02 02:10:51;;;;;;;19.90;9.50;;;;;;;13.83;57.08;98918.80;105883;1277;96385;-70
2022/06/02 02:13:25;;;;;;;21.70;9.30;;;;;;;13.76;56.66;98914.77;105822;1277;111370;-70
2022/06/02 02:16:09;;;;;;;21.30;10.30;;;;;;;13.69;56.76;98920.21;105812;1278;97975;-70
2022/06/02 02:18:49;;;;;;;22.60;10.10;;;;;;;13.61;56.94;98918.36;105840;1277;107677;-70
2022/06/02 02:21:26;;;;;;;20.80;9.90;;;;;;;13.57;57.10;98918.88;105829;1281;97879;-71
2022/06/02 02:24:22;;;;;;;19.10;9.80;;;;;;;13.56;57.21;98915.05;105831;1279;97877;-69
2022/06/02 02:27:08;;;;;;;23.10;10.20;;;;;;;13.59;57.50;98910.02;105851;1277;112813;-69
2022/06/02 02:30:03;;;;;;;23.60;10.70;;;;;;;13.62;57.57;98909.05;105811;1277;97887;-70
2022/06/02 02:32:49;;;;;;;19.10;9.90;;;;;;;13.63;57.70;98906.61;105863;1280;106290;-69
2022/06/02 02:35:45;;;;;;;20.40;9.50;;;;;;;13.63;57.58;98903.09;105823;1281;96423;-71
2022/06/02 02:38:28;;;;;;;19.00;9.80;;;;;;;13.62;57.81;98893.73;105918;1277;95204;-71
2022/06/02 02:41:04;;;;;;;19.30;9.70;;;;;;;13.61;57.85;98887.75;105869;1281;111358;-71
2022/06/02 02:43:32;;;;;;;20.50;9.70;;;;;;;13.62;57.82;98888.05;105639;1281;98709;-71
2022/06/02 02:46:18;;;;;;;19.40;10.20;;;;;;;13.61;57.84;98888.13;105629;1281;108966;-71
2022/06/02 02:48:54;;;;;;;20.30;10.20;;;;;;;13.57;57.87;98886.10;105690;1281;97977;-70
2022/06/02 02:51:23;;;;;;;23.10;10.70;;;;;;;13.55;57.80;98886.27;105778;1281;97971;-71
2022/06/02 02:54:26;;;;;;;21.10;10.30;;;;;;;13.51;58.18;98886.65;105905;1280;112620;-72
2022/06/02 02:57:39;;;;;;;19.90;10.00;;;;;;;13.48;58.24;98877.66;105665;1281;97913;-73
2022/06/02 03:00:25;;;;;;;31.70;11.50;;;;;;;13.44;58.67;98881.79;105451;1281;108695;-71
2022/06/02 03:03:24;;;;;;;21.70;10.80;;;;;;;13.39;58.98;98884.79;105859;1281;95357;-69
2022/06/02 03:05:52;;;;;;;22.80;11.40;;;;;;;13.36;59.11;98890.77;105906;1280;98698;-70
2022/06/02 03:08:59;;;;;;;23.20;11.50;;;;;;;13.34;58.89;98896.79;105801;1279;111409;-69
2022/06/02 03:11:54;;;;;;;23.10;11.70;;;;;;;13.37;59.11;98906.19;105422;1281;97880;-69
2022/06/02 03:14:39;;;;;;;27.50;13.00;;;;;;;13.41;59.29;98909.42;105655;1279;107859;-69
2022/06/02 03:17:25;;;;;;;22.40;11.80;;;;;;;13.47;59.37;98914.44;105671;1281;95504;-68
2022/06/02 03:20:30;;;;;;;24.60;12.40;;;;;;;13.53;59.46;98912.67;105752;1279;97757;-70
2022/06/02 03:23:06;;;;;;;21.60;10.90;;;;;;;13.59;59.62;98914.45;105832;1279;111472;-69
2022/06/02 03:25:55;;;;;;;23.20;11.50;;;;;;;13.64;59.57;98916.15;105847;1280;97906;-69
2022/06/02 03:28:44;;;;;;;20.60;10.80;;;;;;;13.69;59.80;98919.09;105732;1279;107816;-72
2022/06/02 03:31:31;;;;;;;21.50;11.00;;;;;;;13.74;59.91;98922.83;105795;1281;97992;-69
2022/06/02 03:34:31;;;;;;;20.10;10.60;;;;;;;13.79;59.90;98928.23;105834;1279;98584;-74
2022/06/02 03:37:23;;;;;;;21.40;11.00;;;;;;;13.85;60.08;98930.21;105862;1279;109597;-71
2022/06/02 03:40:27;;;;;;;25.30;12.00;;;;;;;13.91;60.15;98933.40;105904;1279;97909;-70
2022/06/02 03:43:16;;;;;;;20.80;11.20;;;;;;;13.96;60.01;98927.23;105914;1279;107593;-71
2022/06/02 03:45:53;;;;;;;20.50;10.80;;;;;;;13.99;59.92;98924.86;105816;1279;95324;-69
2022/06/02 03:48:39;;;;;;;22.50;11.90;;;;;;;14.01;60.05;98928.81;105676;1280;191415;-69
2022/06/02 03:51:19;;;;;;;20.80;11.00;;;;;;;14.03;59.87;98930.61;105806;1279;112041;-70
2022/06/02 03:53:53;;;;;;;22.50;11.80;;;;;;;14.02;60.12;98933.03;105880;1279;97890;-70
2022/06/02 03:56:40;;;;;;;21.70;11.40;;;;;;;14.04;60.42;98939.20;105860;1279;107461;-71
2022/06/02 03:59:28;;;;;;;21.90;12.80;;;;;;;14.10;60.53;98942.77;105872;1279;97910;-70
2022/06/02 04:02:07;;;;;;;23.30;12.30;;;;;;;14.18;60.72;98948.50;105854;1279;97870;-70
2022/06/02 04:04:43;;;;;;;21.90;12.70;;;;;;;14.27;60.70;98942.73;105762;1279;111403;-69
2022/06/02 04:07:17;;;;;;;23.50;12.60;;;;;;;14.35;60.66;98943.45;105818;1279;97992;-69
2022/06/02 04:10:06;;;;;;;20.50;11.60;;;;;;;14.41;60.75;98941.43;105855;1279;108716;-67
2022/06/02 04:16:16;;;;;;;19.50;11.10;;;;;;;14.54;60.58;98946.14;105877;1279;97898;-69
2022/06/02 04:18:50;;;;;;;21.40;12.00;;;;;;;14.57;60.82;98945.48;105748;1279;112073;-72
2022/06/02 04:21:41;;;;;;;21.40;11.50;;;;;;;14.61;60.94;98963.95;105843;1279;96587;-69
2022/06/02 04:24:47;;;;;;;21.00;10.60;;;;;;;14.67;61.02;98991.56;105720;1279;108388;-69
2022/06/02 04:27:30;;;;;;;20.40;11.10;;;;;;;14.73;60.98;98987.45;105879;1279;96149;-69
2022/06/02 04:30:28;;;;;;;20.30;10.40;;;;;;;14.80;61.15;98978.95;105720;1279;97984;-67
2022/06/02 04:33:14;;;;;;;21.30;11.40;;;;;;;14.93;61.31;99000.68;105634;1281;111991;-68
2022/06/02 04:36:02;;;;;;;22.60;12.00;;;;;;;15.05;61.39;98987.60;105851;1279;97922;-69
2022/06/02 04:38:50;;;;;;;21.90;10.80;;;;;;;15.17;61.35;98981.14;105872;1279;107794;-68
2022/06/02 04:41:45;;;;;;;20.50;10.50;;;;;;;15.29;61.45;98983.61;105722;1279;97929;-69
2022/06/02 04:44:23;;;;;;;20.60;10.80;;;;;;;15.41;61.50;98988.58;105871;1279;97883;-69
2022/06/02 04:47:13;;;;;;;20.20;10.20;;;;;;;15.50;61.61;98989.50;105820;1279;111187;-69
2022/06/02 04:49:54;;;;;;;22.30;11.40;;;;;;;15.56;61.61;98980.52;105911;1279;97611;-68
2022/06/02 04:52:39;;;;;;;20.20;10.50;;;;;;;15.63;61.65;98985.44;105901;1279;108561;-71
2022/06/02 04:55:27;;;;;;;21.90;10.50;;;;;;;15.69;61.54;98988.66;105831;1278;98130;-69
2022/06/02 04:58:07;;;;;;;21.90;10.40;;;;;;;15.75;61.61;98987.00;105839;1279;95325;-69
2022/06/02 05:01:04;;;;;;;21.40;10.40;;;;;;;15.82;61.54;98987.25;105665;1279;111303;-70
2022/06/02 05:03:58;;;;;;;24.90;11.10;;;;;;;15.89;61.61;98991.75;105840;1279;97906;-69
2022/06/02 05:06:46;;;;;;;19.10;10.40;;;;;;;15.98;61.54;98985.41;105744;1279;108436;-68
2022/06/02 05:09:47;;;;;;;21.10;10.50;;;;;;;16.03;61.70;98978.23;105711;1279;98572;-70
2022/06/02 05:12:20;;;;;;;19.90;10.10;;;;;;;16.11;61.61;98986.11;105799;1279;95428;-68
2022/06/02 05:15:30;;;;;;;21.80;10.90;;;;;;;16.16;61.64;98998.52;105776;1279;111953;-69
2022/06/02 05:18:29;;;;;;;22.00;10.50;;;;;;;16.20;61.74;99004.90;105190;1285;97934;-69
2022/06/02 05:21:12;;;;;;;22.40;10.10;;;;;;;16.23;61.86;99009.94;105790;1279;107480;-68
2022/06/02 05:24:12;;;;;;;18.10;9.20;;;;;;;16.26;61.82;99007.16;105836;1279;98008;-69
2022/06/02 05:27:14;;;;;;;20.00;9.80;;;;;;;16.28;61.65;99009.64;105753;1279;95436;-69
2022/06/02 05:29:42;;;;;;;21.00;9.30;;;;;;;16.29;61.78;99008.98;105782;1279;111861;-69
2022/06/02 05:32:17;;;;;;;18.60;9.70;;;;;;;16.33;61.75;99011.88;105817;1279;97983;-69
2022/06/02 05:34:48;;;;;;;18.90;9.10;;;;;;;16.32;61.62;99011.71;105721;1279;108229;-69
2022/06/02 05:37:41;;;;;;;18.60;7.80;;;;;;;16.30;61.32;99014.28;105734;1279;98655;-69
2022/06/02 05:40:22;;;;;;;17.30;7.50;;;;;;;16.27;61.44;99020.35;105814;1279;97856;-68
2022/06/02 05:43:18;;;;;;;15.90;7.00;;;;;;;16.24;61.36;99020.45;105838;1279;112036;-69
2022/06/02 05:46:41;;;;;;;18.90;8.20;;;;;;;16.21;61.38;99025.52;105730;1279;97884;-69
2022/06/02 05:49:40;;;;;;;16.90;7.20;;;;;;;16.15;61.32;99028.48;104991;1285;108485;-68
2022/06/02 05:52:26;;;;;;;19.30;8.20;;;;;;;16.09;61.12;99027.10;105558;1279;98315;-69
2022/06/02 05:55:13;;;;;;;18.70;7.60;;;;;;;16.02;61.18;99043.77;105768;1279;95784;-69
2022/06/02 05:57:55;;;;;;;17.30;7.30;;;;;;;15.96;61.36;99054.27;105776;1279;111519;-68
2022/06/02 06:00:38;;;;;;;17.60;7.80;;;;;;;15.91;61.21;99060.17;105784;1279;97889;-70
2022/06/02 06:03:25;;;;;;;16.40;6.60;;;;;;;15.84;61.10;99065.02;105800;1279;107782;-69
2022/06/02 06:06:14;;;;;;;15.00;7.00;;;;;;;15.78;61.28;99069.50;105799;1279;95995;-69
2022/06/02 06:08:48;;;;;;;17.30;6.80;;;;;;;15.73;61.19;99076.50;105793;1279;97950;-70
2022/06/02 06:11:38;;;;;;;17.10;7.40;;;;;;;15.69;61.19;99079.62;105787;1279;111336;-71
2022/06/02 06:14:19;;;;;;;17.10;7.60;;;;;;;15.65;61.36;99077.81;105781;1279;96479;-71
2022/06/02 06:16:59;;;;;;;16.10;6.80;;;;;;;15.64;61.34;99080.37;105888;1279;107750;-70
2022/06/02 06:19:31;;;;;;;16.60;6.90;;;;;;;15.62;61.32;99082.69;105882;1279;98574;-70
2022/06/02 06:22:29;;;;;;;17.10;7.40;;;;;;;15.60;61.22;99087.77;105799;1278;97912;-69
2022/06/02 06:25:20;;;;;;;16.10;7.30;;;;;;;15.57;61.24;99100.54;105754;1279;111013;-68
2022/06/02 06:28:18;;;;;;;16.20;6.30;;;;;;;15.53;61.19;99106.29;105778;1279;97697;-69
2022/06/02 06:31:10;;;;;;;15.60;7.00;;;;;;;15.50;61.29;99107.84;105746;1279;107951;-69
2022/06/02 06:34:10;;;;;;;14.80;6.50;;;;;;;15.50;61.32;99115.72;105784;1279;97897;-70
2022/06/02 06:36:57;;;;;;;16.80;6.20;;;;;;;15.52;61.30;99108.21;105801;1279;95215;-69
2022/06/02 06:40:03;;;;;;;18.20;7.10;;;;;;;15.55;61.32;99112.89;105641;1279;111785;-68
2022/06/02 06:42:37;;;;;;;14.10;6.40;;;;;;;15.59;61.38;99119.98;105828;1279;97002;-68
2022/06/02 06:45:19;;;;;;;15.30;6.40;;;;;;;15.63;61.27;99122.48;105752;1278;108185;-69
2022/06/02 06:47:56;;;;;;;14.40;6.80;;;;;;;15.69;61.32;99130.73;105744;1279;97967;-70
2022/06/02 06:50:45;;;;;;;14.70;6.90;;;;;;;15.76;61.26;99132.23;105791;1279;97997;-68
2022/06/02 06:53:41;;;;;;;13.90;5.90;;;;;;;15.86;61.37;99132.56;105751;1279;111368;-69
2022/06/02 06:56:13;;;;;;;14.40;6.20;;;;;;;15.96;61.19;99130.27;105807;1279;97928;-69
2022/06/02 06:59:09;;;;;;;14.20;6.20;;;;;;;16.01;61.26;99133.83;105715;1279;107758;-69
2022/06/02 07:01:45;;;;;;;18.00;6.40;;;;;;;16.09;61.25;99123.27;105790;1279;97874;-70
2022/06/02 07:04:20;;;;;;;15.80;6.70;;;;;;;16.15;61.21;99122.56;105803;1279;97891;-70
2022/06/02 07:07:00;;;;;;;14.30;6.50;;;;;;;16.19;61.32;99122.70;105805;1279;110987;-69
2022/06/02 07:09:49;;;;;;;12.70;5.90;;;;;;;16.23;61.21;99128.16;105838;1279;97905;-69
2022/06/02 07:12:50;;;;;;;15.20;6.40;;;;;;;16.28;61.27;99133.85;105810;1279;108131;-69
2022/06/02 07:15:27;;;;;;;16.90;6.80;;;;;;;16.31;61.24;99141.98;105773;1279;97031;-69
2022/06/02 07:18:03;;;;;;;14.20;6.20;;;;;;;16.31;61.19;99139.28;105813;1279;96434;-69
2022/06/02 07:21:02;;;;;;;12.60;6.30;;;;;;;16.32;61.18;99141.65;105862;1279;112102;-67
2022/06/02 07:23:55;;;;;;;17.00;7.20;;;;;;;16.31;61.19;99143.95;105808;1278;97873;-69
2022/06/02 07:27:01;;;;;;;17.80;6.90;;;;;;;16.31;61.31;99146.41;105803;1279;108451;-69
2022/06/02 07:29:43;;;;;;;;;;;;;;;16.30;61.09;99150.42;105870;1277;97811;-70
2022/06/02 07:32:36;;;;;;;13.80;6.30;;;;;;;16.26;60.99;99156.96;105902;1277;95284;-68
2022/06/02 07:35:22;;;;;;;15.80;5.90;;;;;;;16.27;61.20;99158.06;105811;1277;111417;-69
2022/06/02 07:38:13;;;;;;;16.20;6.30;;;;;;;16.30;61.09;99162.63;105811;1277;96381;-69
2022/06/02 07:40:57;;;;;;;17.00;6.50;;;;;;;16.39;61.14;99173.79;105699;1279;106475;-69
2022/06/02 07:44:09;;;;;;;16.90;6.30;;;;;;;16.56;61.16;99178.98;105827;1277;97948;-69
2022/06/02 07:47:07;;;;;;;11.10;5.60;;;;;;;16.74;61.31;99169.91;105346;1279;96374;-68
2022/06/02 07:49:41;;;;;;;12.80;5.60;;;;;;;17.04;61.08;99172.61;105808;1277;111400;-70
2022/06/02 07:52:24;;;;;;;15.20;6.00;;;;;;;17.21;60.91;99174.67;105803;1277;98553;-69
2022/06/02 07:55:05;;;;;;;12.90;6.10;;;;;;;17.53;60.78;99177.27;105683;1277;108618;-69
2022/06/02 07:57:49;;;;;;;11.10;5.00;;;;;;;17.68;61.08;99182.98;105692;1277;97973;-69
2022/06/02 08:00:23;;;;;;;10.30;4.80;;;;;;;17.75;60.83;99185.49;105775;1277;96126;-69
2022/06/02 08:03:12;;;;;;;12.50;5.10;;;;;;;17.83;60.91;99192.22;105818;1277;111408;-69
2022/06/02 08:05:51;;;;;;;10.50;4.80;;;;;;;17.93;60.62;99191.40;105836;1278;97946;-72
2022/06/02 08:08:41;;;;;;;10.30;4.60;;;;;;;18.00;60.70;99192.45;105729;1278;108196;-67
2022/06/02 08:11:23;;;;;;;15.90;5.00;;;;;;;18.18;60.74;99195.52;105417;1277;96312;-69
2022/06/02 08:14:04;;;;;;;14.50;5.20;;;;;;;18.79;60.36;99204.90;105757;1279;97913;-68
2022/06/02 08:16:57;;;;;;;8.80;4.30;;;;;;;19.91;59.90;99205.53;105735;1279;111776;-68
2022/06/02 08:19:57;;;;;;;10.40;4.60;;;;;;;21.23;59.60;99207.29;105823;1279;97922;-68
2022/06/02 08:22:56;;;;;;;10.00;4.20;;;;;;;22.27;59.59;99202.30;105858;1278;107721;-70
2022/06/02 08:25:30;;;;;;;5.60;3.30;;;;;;;23.00;59.42;99196.74;105730;1277;97857;-70
2022/06/02 08:28:30;;;;;;;7.20;3.40;;;;;;;23.75;59.12;99203.02;105684;1277;97919;-69
2022/06/02 08:30:58;;;;;;;7.40;3.40;;;;;;;24.01;58.75;99214.05;105380;1279;113087;-69
2022/06/02 08:33:44;;;;;;;7.50;3.70;;;;;;;24.46;59.10;99213.77;105835;1278;97998;-69
2022/06/02 08:36:25;;;;;;;6.70;3.50;;;;;;;24.23;59.13;99219.63;105806;1277;107816;-70
2022/06/02 08:39:30;;;;;;;8.10;3.50;;;;;;;24.07;58.93;99225.06;105841;1277;97969;-69
2022/06/02 08:42:05;;;;;;;4.80;3.20;;;;;;;23.78;58.68;99218.98;105803;1278;98561;-68
2022/06/02 08:44:58;;;;;;;12.80;3.70;;;;;;;23.46;58.88;99217.00;105741;1279;111912;-69
2022/06/02 08:47:46;;;;;;;9.90;3.80;;;;;;;23.11;58.40;99221.63;105732;1277;96291;-70
2022/06/02 08:50:20;;;;;;;8.40;3.30;;;;;;;22.57;58.23;99225.81;105823;1279;107771;-68
2022/06/02 08:52:54;;;;;;;9.30;3.60;;;;;;;22.02;58.08;99236.10;105961;1278;97541;-68
2022/06/02 08:55:46;;;;;;;8.00;3.60;;;;;;;21.53;58.04;99241.70;105724;1278;96280;-70
2022/06/02 08:58:44;;;;;;;8.70;3.40;;;;;;;21.11;57.87;99250.74;105759;1277;111318;-69
2022/06/02 09:01:49;;;;;;;10.10;3.50;;;;;;;20.68;57.57;99262.65;105684;1278;96496;-69
2022/06/02 09:04:48;;;;;;;9.10;3.60;;;;;;;20.49;57.63;99268.02;105626;1277;107637;-69
2022/06/02 09:08:01;;;;;;;8.00;4.00;;;;;;;20.31;57.57;99265.64;105728;1278;97891;-69
2022/06/02 09:11:11;;;;;;;7.00;3.50;;;;;;;20.08;57.39;99267.08;105774;1279;97726;-68
2022/06/02 09:13:57;;;;;;;7.90;3.40;;;;;;;19.90;57.31;99268.67;104955;1285;111343;-69
2022/06/02 09:16:29;;;;;;;6.80;3.70;;;;;;;19.78;57.34;99273.35;105776;1279;96476;-67
2022/06/02 09:19:25;;;;;;;7.00;4.10;;;;;;;19.67;57.25;99276.38;105739;1278;108025;-69
2022/06/02 09:22:12;;;;;;;11.40;4.10;;;;;;;19.57;57.18;99281.17;105757;1279;97930;-69
2022/06/02 09:24:43;;;;;;;10.90;4.40;;;;;;;19.52;57.06;99282.80;105760;1279;97060;-69
2022/06/02 09:27:48;;;;;;;10.50;4.40;;;;;;;19.45;56.87;99281.20;105699;1279;111514;-69
2022/06/02 09:30:32;;;;;;;9.50;4.20;;;;;;;19.26;56.90;99281.89;105716;1278;97996;-68
2022/06/02 09:33:45;;;;;;;10.00;4.20;;;;;;;19.18;57.03;99285.42;105657;1278;107678;-69
2022/06/02 09:36:36;;;;;;;7.90;4.10;;;;;;;19.06;56.94;99297.13;105753;1279;97978;-69
2022/06/02 09:39:41;;;;;;;11.10;4.70;;;;;;;19.06;57.02;99300.73;105822;1277;97876;-70
2022/06/02 09:42:21;;;;;;;9.90;4.40;;;;;;;19.09;56.91;99297.08;105724;1277;110757;-68
2022/06/02 09:44:49;;;;;;;11.40;4.90;;;;;;;19.13;56.98;99297.15;105779;1277;97885;-69
2022/06/02 09:47:38;;;;;;;10.90;5.20;;;;;;;19.20;56.91;99292.48;105725;1277;108374;-70
2022/06/02 09:50:48;;;;;;;9.20;4.40;;;;;;;19.37;56.80;99292.98;105717;1279;97876;-70
2022/06/02 09:53:31;;;;;;;10.50;4.50;;;;;;;19.53;56.79;99293.27;105707;1279;97883;-69
2022/06/02 09:56:31;;;;;;;8.90;4.20;;;;;;;19.60;56.78;99294.84;105708;1279;111388;-70
2022/06/02 09:59:21;;;;;;;12.90;4.30;;;;;;;19.61;56.72;99296.63;105334;1279;97834;-70
2022/06/02 10:02:11;;;;;;;9.00;4.00;;;;;;;19.56;56.73;99294.05;105678;1278;108792;-68
2022/06/02 10:04:50;;;;;;;9.50;4.00;;;;;;;19.59;56.81;99293.08;105798;1279;97802;-70
2022/06/02 10:07:43;;;;;;;10.20;3.70;;;;;;;19.72;56.76;99289.48;105840;1278;97973;-68
2022/06/02 10:10:39;;;;;;;10.90;3.70;;;;;;;19.80;56.85;99293.63;105734;1279;111490;-69
2022/06/02 10:13:34;;;;;;;13.40;4.50;;;;;;;19.95;56.84;99292.80;105853;1279;95776;-69
2022/06/02 10:16:24;;;;;;;8.50;3.80;;;;;;;20.13;56.80;99292.55;105707;1279;108616;-68
2022/06/02 10:19:03;;;;;;;5.80;3.00;;;;;;;20.23;56.59;99293.73;105805;1279;97950;-70
2022/06/02 10:21:52;;;;;;;7.60;3.40;;;;;;;20.20;56.48;99297.98;105753;1279;97972;-69
2022/06/02 10:24:41;;;;;;;6.80;3.30;;;;;;;20.18;56.78;99294.30;105764;1278;111686;-67
2022/06/02 10:27:32;;;;;;;6.70;3.60;;;;;;;20.12;56.69;99294.55;105806;1279;97993;-69
2022/06/02 10:30:51;;;;;;;7.70;3.00;;;;;;;20.03;56.76;99296.96;105830;1279;107725;-70
2022/06/02 10:33:41;;;;;;;7.80;3.60;;;;;;;19.94;56.61;99301.02;105132;1279;97880;-69
2022/06/02 10:36:23;;;;;;;4.80;3.20;;;;;;;19.87;56.59;99297.60;105741;1279;97968;-70
2022/06/02 10:39:04;;;;;;;7.00;3.20;;;;;;;19.79;56.62;99293.05;105730;1279;111220;-69
2022/06/02 10:42:18;;;;;;;7.80;3.70;;;;;;;19.78;56.51;99286.10;105604;1278;98022;-70
2022/06/02 10:45:12;;;;;;;6.90;3.10;;;;;;;19.73;56.68;99283.58;106314;1279;107712;-70
2022/06/02 10:48:00;;;;;;;6.20;3.30;;;;;;;19.83;56.52;99285.06;105753;1278;97002;-71
2022/06/02 10:50:50;;;;;;;8.40;3.00;;;;;;;19.91;56.52;99282.45;105733;1279;95388;-70
2022/06/02 10:53:30;;;;;;;7.40;3.40;;;;;;;19.98;56.47;99282.04;105670;1279;111144;-70
2022/06/02 10:56:03;;;;;;;6.60;3.40;;;;;;;19.98;56.43;99277.84;105750;1279;97891;-67
2022/06/02 10:58:40;;;;;;;5.20;2.80;;;;;;;20.02;56.45;99273.30;105836;1279;107567;-69
2022/06/02 11:02:02;;;;;;;7.50;3.10;;;;;;;20.04;56.31;99275.47;105781;1279;98104;-68
2022/06/02 11:05:06;;;;;;;5.90;2.80;;;;;;;19.99;56.23;99272.05;105757;1279;97885;-69
2022/06/02 11:07:57;;;;;;;7.90;3.40;;;;;;;20.00;56.27;99270.10;105733;1278;111022;-68
2022/06/02 11:11:02;;;;;;;5.80;3.20;;;;;;;20.12;56.35;99266.84;105699;1277;95940;-69
2022/06/02 11:13:36;;;;;;;4.40;2.80;;;;;;;20.29;56.51;99261.45;105750;1278;107769;-69
2022/06/02 11:16:14;;;;;;;6.80;3.20;;;;;;;20.41;56.43;99264.41;105680;1278;98111;-69
2022/06/02 11:18:46;;;;;;;6.90;2.70;;;;;;;20.54;56.36;99260.05;105788;1278;97978;-70
2022/06/02 11:21:22;;;;;;;5.10;2.90;;;;;;;20.66;56.15;99260.72;105754;1279;112319;-69
2022/06/02 11:24:06;;;;;;;4.20;2.40;;;;;;;20.74;56.16;99254.69;105729;1279;97998;-70
2022/06/02 11:27:05;;;;;;;13.60;3.80;;;;;;;20.78;56.06;99254.84;105575;1279;108309;-68
2022/06/02 11:30:04;;;;;;;5.70;2.70;;;;;;;20.88;56.17;99251.67;105686;1279;97884;-70
2022/06/02 11:33:05;;;;;;;7.70;2.70;;;;;;;20.96;55.99;99250.13;105834;1279;97919;-69
2022/06/02 11:35:54;;;;;;;4.00;2.50;;;;;;;21.04;56.11;99254.65;105738;1279;109711;-69
2022/06/02 11:38:42;;;;;;;4.10;2.50;;;;;;;21.15;56.12;99261.11;105761;1279;97971;-70
2022/06/02 11:41:36;;;;;;;5.20;2.90;;;;;;;21.21;56.08;99255.33;105726;1279;107775;-69
2022/06/02 11:44:17;;;;;;;;;;;;;;;21.31;55.94;99255.29;106002;1276;98576;-69
2022/06/02 11:46:50;;;;;;;6.90;2.90;;;;;;;21.35;55.82;99252.41;105976;1276;96987;-70
2022/06/02 11:49:43;;;;;;;5.90;2.80;;;;;;;21.44;55.81;99253.98;105821;1276;111231;-69
2022/06/02 11:52:48;;;;;;;4.40;2.60;;;;;;;21.61;55.73;99249.88;105718;1276;97887;-70
2022/06/02 11:56:01;;;;;;;6.50;2.80;;;;;;;21.75;55.62;99246.79;105764;1277;106631;-69
2022/06/02 11:59:17;;;;;;;4.20;2.80;;;;;;;21.86;55.67;99246.77;104936;1287;98069;-69
2022/06/02 12:02:03;;;;;;;7.40;2.60;;;;;;;21.98;55.60;99245.95;105483;1279;97965;-70
2022/06/02 12:04:39;;;;;;;5.50;2.60;;;;;;;22.03;55.66;99252.16;105745;1279;112089;-69
2022/06/02 12:07:19;;;;;;;5.90;2.50;;;;;;;22.08;55.21;99250.86;105781;1276;97735;-69
2022/06/02 12:10:00;;;;;;;4.50;2.80;;;;;;;22.09;55.19;99255.17;105877;1276;108069;-69
2022/06/02 12:12:49;;;;;;;3.10;2.10;;;;;;;22.07;55.20;99260.09;105653;1276;97902;-70
2022/06/02 12:15:31;;;;;;;3.30;2.40;;;;;;;22.04;55.13;99265.96;105574;1277;97980;-69
2022/06/02 12:18:36;;;;;;;5.00;2.50;;;;;;;22.05;55.02;99262.69;107620;1276;111962;-69
2022/06/02 12:21:46;;;;;;;5.70;2.50;;;;;;;22.05;54.82;99262.95;107116;1276;95981;-69
2022/06/02 12:24:26;;;;;;;7.30;3.00;;;;;;;22.05;54.70;99253.77;106122;1276;107802;-70
2022/06/02 12:27:09;;;;;;;3.90;2.80;;;;;;;22.10;54.80;99254.79;105558;1276;98173;-68
2022/06/02 12:30:02;;;;;;;5.40;2.70;;;;;;;22.14;54.53;99257.64;105856;1276;95280;-68
2022/06/02 12:33:42;;;;;;;6.80;3.00;;;;;;;22.08;54.64;99253.82;107585;1276;112485;-68
2022/06/02 12:36:46;;;;;;;16.60;3.20;;;;;;;22.06;54.48;99248.23;106890;1284;96208;-69
2022/06/02 12:39:34;;;;;;;5.60;3.30;;;;;;;22.18;54.53;99253.13;106760;1283;108178;-69
2022/06/02 12:42:32;;;;;;;6.80;2.90;;;;;;;22.28;54.40;99254.48;105561;1279;97996;-70
2022/06/02 12:45:47;;;;;;;5.10;2.90;;;;;;;22.40;54.33;99250.97;105777;1276;96489;-69
2022/06/02 12:48:34;;;;;;;6.40;3.40;;;;;;;22.47;54.19;99245.02;105842;1277;111741;-69
2022/06/02 12:51:14;;;;;;;5.50;2.80;;;;;;;22.52;54.21;99243.22;105932;1278;98190;-68
2022/06/02 12:53:57;;;;;;;8.00;3.40;;;;;;;22.59;53.90;99246.55;105915;1279;106158;-69
2022/06/02 12:57:02;;;;;;;6.40;2.90;;;;;;;22.57;53.88;99248.69;105906;1278;97915;-69
2022/06/02 12:59:44;;;;;;;4.10;2.50;;;;;;;22.50;53.69;99241.27;105927;1278;97971;-70